createdAt,value
2023-05-10T00:02:09.026Z,100824.97
2023-05-10T00:05:11.685Z,100826.50
2023-05-10T00:08:14.762Z,100822.03
2023-05-10T00:11:17.185Z,100814.97
2023-05-10T00:14:20.606Z,100817.06
2023-05-10T00:17:23.257Z,100807.44
2023-05-10T00:20:26.086Z,100813.84
2023-05-10T00:23:28.847Z,100814.41
2023-05-10T00:26:31.440Z,100812.31
2023-05-10T00:29:34.868Z,100813.84
2023-05-10T00:32:38.464Z,100815.94
2023-05-10T00:35:41.390Z,100809.53
2023-05-10T00:38:45.596Z,100804.72
2023-05-10T00:41:48.190Z,100803.84
2023-05-10T00:44:52.529Z,100805.66
2023-05-10T00:47:57.118Z,100801.91
2023-05-10T00:50:59.977Z,100797.63
2023-05-10T00:54:03.433Z,100801.34
2023-05-10T00:57:06.138Z,100796.53
2023-05-10T01:00:09.668Z,100792.72
2023-05-10T01:03:12.693Z,100800.03
2023-05-10T01:06:15.496Z,100798.59
2023-05-10T01:09:19.486Z,100791.34
2023-05-10T01:12:22.374Z,100787.38
2023-05-10T01:15:25.436Z,100791.50
2023-05-10T01:18:29.062Z,100786.31
2023-05-10T01:21:46.387Z,100785.34
2023-05-10T01:25:06.949Z,100787.88
2023-05-10T01:28:36.815Z,100791.91
2023-05-10T01:31:58.252Z,100786.81
2023-05-10T01:35:07.580Z,100783.16
2023-05-10T01:38:15.788Z,100779.50
2023-05-10T01:41:34.218Z,100778.34
2023-05-10T01:44:56.977Z,100782.22
2023-05-10T01:48:11.937Z,100782.53
2023-05-10T01:51:20.991Z,100782.31
2023-05-10T01:54:25.818Z,100788.78
2023-05-10T01:57:34.056Z,100791.28
2023-05-10T02:00:41.068Z,100785.31
2023-05-10T02:03:44.746Z,100779.44
2023-05-10T02:06:49.187Z,100783.84
2023-05-10T02:09:52.454Z,100778.97
2023-05-10T02:12:56.836Z,100783.34
2023-05-10T02:16:00.871Z,100774.50
2023-05-10T02:19:05.360Z,100785.44
2023-05-10T02:22:09.969Z,100786.59
2023-05-10T02:25:15.079Z,100789.91
2023-05-10T02:28:19.178Z,100789.66
2023-05-10T02:31:23.177Z,100781.34
2023-05-10T02:34:28.424Z,100781.78
2023-05-10T02:37:32.496Z,100784.38
2023-05-10T02:40:37.860Z,100783.94
2023-05-10T02:43:41.907Z,100782.50
2023-05-10T02:46:45.102Z,100777.81
2023-05-10T02:49:48.598Z,100774.91
2023-05-10T02:52:53.344Z,100782.19
2023-05-10T02:56:00.283Z,100775.22
2023-05-10T02:59:02.952Z,100776.91
2023-05-10T03:02:06.396Z,100780.53
2023-05-10T03:05:09.208Z,100785.25
2023-05-10T03:08:12.177Z,100780.91
2023-05-10T03:11:53.125Z,100782.81
2023-05-10T03:15:11.086Z,100776.38
2023-05-10T03:18:22.823Z,100777.41
2023-05-10T03:21:29.884Z,100786.94
2023-05-10T03:24:35.380Z,100780.53
2023-05-10T03:27:41.520Z,100775.81
2023-05-10T03:30:45.950Z,100776.41
2023-05-10T03:33:50.824Z,100778.41
2023-05-10T03:36:58.975Z,100776.63
2023-05-10T03:40:05.553Z,100786.59
2023-05-10T03:43:10.472Z,100785.72
2023-05-10T03:46:13.483Z,100780.03
2023-05-10T03:49:15.908Z,100782.69
2023-05-10T03:52:19.547Z,100781.69
2023-05-10T03:55:23.489Z,100779.31
2023-05-10T03:58:26.802Z,100775.16
2023-05-10T04:01:29.492Z,100781.84
2023-05-10T04:04:32.215Z,100780.47
2023-05-10T04:07:35.092Z,100781.75
2023-05-10T04:10:38.199Z,100773.28
2023-05-10T04:13:40.574Z,100774.03
2023-05-10T04:16:43.516Z,100775.81
2023-05-10T04:19:46.092Z,100780.84
2023-05-10T04:22:49.135Z,100781.13
2023-05-10T04:25:51.890Z,100782.31
2023-05-10T04:28:54.533Z,100785.53
2023-05-10T04:31:57.644Z,100784.88
2023-05-10T04:35:00.397Z,100784.25
2023-05-10T04:38:02.990Z,100783.88
2023-05-10T04:41:10.321Z,100787.00
2023-05-10T04:44:12.774Z,100795.88
2023-05-10T04:47:15.677Z,100787.56
2023-05-10T04:50:18.745Z,100788.94
2023-05-10T04:53:21.999Z,100791.16
2023-05-10T04:56:24.519Z,100785.03
2023-05-10T04:59:27.636Z,100774.88
2023-05-10T05:02:30.236Z,100783.19
2023-05-10T05:05:32.995Z,100781.50
2023-05-10T05:08:35.632Z,100782.66
2023-05-10T05:11:38.419Z,100781.88
2023-05-10T05:14:42.233Z,100789.28
2023-05-10T05:17:45.299Z,100779.09
2023-05-10T05:20:47.782Z,100783.28
2023-05-10T05:23:50.715Z,100788.34
2023-05-10T05:26:53.092Z,100790.47
2023-05-10T05:29:56.360Z,100792.50
2023-05-10T05:32:59.134Z,100791.13
2023-05-10T05:36:03.083Z,100794.44
2023-05-10T05:39:05.888Z,100798.41
2023-05-10T05:42:09.098Z,100801.28
2023-05-10T05:45:14.192Z,100815.25
2023-05-10T05:48:17.117Z,100812.94
2023-05-10T05:51:19.592Z,100803.75
2023-05-10T05:54:22.681Z,100810.50
2023-05-10T05:57:25.375Z,100819.09
2023-05-10T06:00:28.125Z,100820.34
2023-05-10T06:03:30.818Z,100816.34
2023-05-10T06:06:33.571Z,100803.63
2023-05-10T06:09:36.057Z,100816.75
2023-05-10T06:12:38.909Z,100814.75
2023-05-10T06:15:41.361Z,100809.72
2023-05-10T06:18:43.982Z,100818.16
2023-05-10T06:21:46.398Z,100813.84
2023-05-10T06:24:49.215Z,100813.97
2023-05-10T06:27:53.737Z,100809.69
2023-05-10T06:30:56.797Z,100813.34
2023-05-10T06:33:59.195Z,100812.47
2023-05-10T06:37:01.784Z,100813.75
2023-05-10T06:40:05.022Z,100817.75
2023-05-10T06:43:08.286Z,100823.47
2023-05-10T06:46:11.031Z,100828.59
2023-05-10T06:49:13.759Z,100828.41
2023-05-10T06:52:16.676Z,100822.88
2023-05-10T06:55:39.130Z,100815.91
2023-05-10T06:58:42.018Z,100826.56
2023-05-10T07:01:44.752Z,100820.03
2023-05-10T07:04:48.438Z,100827.34
2023-05-10T07:07:51.376Z,100828.84
2023-05-10T07:10:54.080Z,100821.34
2023-05-10T07:13:57.066Z,100819.22
2023-05-10T07:16:59.612Z,100819.00
2023-05-10T07:20:02.637Z,100827.13
2023-05-10T07:23:05.220Z,100819.31
2023-05-10T07:26:08.131Z,100823.19
2023-05-10T07:29:11.137Z,100821.53
2023-05-10T07:32:13.770Z,100820.44
2023-05-10T07:35:16.633Z,100825.03
2023-05-10T07:38:19.346Z,100814.50
2023-05-10T07:41:22.482Z,100818.06
2023-05-10T07:44:25.428Z,100821.66
2023-05-10T07:47:28.098Z,100826.09
2023-05-10T07:50:30.702Z,100834.66
2023-05-10T07:53:33.317Z,100831.53
2023-05-10T07:56:36.063Z,100825.94
2023-05-10T07:59:38.761Z,100823.72
2023-05-10T08:02:41.931Z,100832.63
2023-05-10T08:05:44.609Z,100822.25
2023-05-10T08:08:50.456Z,100824.31
2023-05-10T08:11:53.077Z,100829.28
2023-05-10T08:14:55.675Z,100823.78
2023-05-10T08:17:58.288Z,100820.78
2023-05-10T08:21:00.787Z,100829.88
2023-05-10T08:24:03.706Z,100823.19
2023-05-10T08:27:06.652Z,100826.66
2023-05-10T08:30:09.871Z,100825.69
2023-05-10T08:33:12.600Z,100828.31
2023-05-10T08:36:21.041Z,100822.25
2023-05-10T08:39:30.340Z,100827.22
2023-05-10T08:42:38.965Z,100817.53
2023-05-10T08:45:44.000Z,100818.94
2023-05-10T08:48:47.523Z,100824.94
2023-05-10T08:51:56.138Z,100828.13
2023-05-10T08:54:59.218Z,100828.13
2023-05-10T08:58:01.919Z,100819.63
2023-05-10T09:01:05.976Z,100819.28
2023-05-10T09:04:08.745Z,100825.56
2023-05-10T09:07:11.879Z,100813.47
2023-05-10T09:10:15.854Z,100821.38
2023-05-10T09:13:18.601Z,100830.78
2023-05-10T09:16:22.478Z,100824.31
2023-05-10T09:19:25.136Z,100830.94
2023-05-10T09:22:28.235Z,100824.00
2023-05-10T09:25:30.811Z,100824.19
2023-05-10T09:28:52.542Z,100823.50
2023-05-10T09:31:57.502Z,100819.66
2023-05-10T09:35:07.812Z,100825.91
2023-05-10T09:38:11.432Z,100822.09
2023-05-10T09:41:22.567Z,100822.00
2023-05-10T09:44:27.104Z,100812.25
2023-05-10T09:47:30.083Z,100811.69
2023-05-10T09:50:32.722Z,100807.09
2023-05-10T09:53:35.658Z,100813.44
2023-05-10T09:56:41.387Z,100812.03
2023-05-10T09:59:44.636Z,100802.66
2023-05-10T10:02:58.149Z,100803.19
2023-05-10T10:06:01.494Z,100796.69
2023-05-10T10:09:04.109Z,100793.94
2023-05-10T10:12:06.887Z,100785.94
2023-05-10T10:15:10.538Z,100786.03
2023-05-10T10:18:18.199Z,100782.03
2023-05-10T10:21:21.490Z,100777.09
2023-05-10T10:24:24.088Z,100777.22
2023-05-10T10:27:38.836Z,100773.38
2023-05-10T10:30:49.180Z,100772.53
2023-05-10T10:34:06.430Z,100761.75
2023-05-10T10:37:09.473Z,100759.81
2023-05-10T10:40:26.757Z,100760.09
2023-05-10T10:43:30.000Z,100758.84
2023-05-10T10:46:35.320Z,100754.84
2023-05-10T10:49:41.181Z,100747.75
2023-05-10T10:52:45.248Z,100744.69
2023-05-10T10:55:49.198Z,100738.06
2023-05-10T10:58:52.888Z,100740.56
2023-05-10T11:01:55.619Z,100729.91
2023-05-10T11:04:58.253Z,100730.28
2023-05-10T11:08:01.940Z,100732.47
2023-05-10T11:11:09.614Z,100724.50
2023-05-10T11:14:12.438Z,100722.75
2023-05-10T11:17:26.174Z,100716.94
2023-05-10T11:20:34.306Z,100717.44
2023-05-10T11:23:57.343Z,100717.78
2023-05-10T11:30:04.832Z,100712.97
2023-05-10T11:33:10.874Z,100711.03
2023-05-10T11:36:19.167Z,100701.94
2023-05-10T11:39:22.787Z,100695.69
2023-05-10T11:42:25.811Z,100699.97
2023-05-10T11:45:30.106Z,100692.88
2023-05-10T11:48:32.934Z,100689.66
2023-05-10T11:51:37.330Z,100691.63
2023-05-10T11:54:52.835Z,100679.59
2023-05-10T11:57:56.031Z,100691.31
2023-05-10T12:01:00.332Z,100695.88
2023-05-10T12:04:03.345Z,100688.56
2023-05-10T12:07:06.308Z,100685.91
2023-05-10T12:10:15.616Z,100689.69
2023-05-10T12:13:20.634Z,100689.41
2023-05-10T12:16:29.840Z,100675.84
2023-05-10T12:19:39.740Z,100683.78
2023-05-10T12:22:44.937Z,100684.63
2023-05-10T12:25:48.203Z,100681.03
2023-05-10T12:28:50.916Z,100671.44
2023-05-10T12:31:58.157Z,100683.09
2023-05-10T12:35:00.890Z,100674.31
2023-05-10T12:38:31.954Z,100666.75
2023-05-10T12:41:34.558Z,100659.66
2023-05-10T12:44:37.075Z,100660.56
2023-05-10T12:47:41.407Z,100661.56
2023-05-10T12:50:45.726Z,100642.44
2023-05-10T12:53:49.704Z,100647.97
2023-05-10T12:56:52.342Z,100641.66
2023-05-10T12:59:55.717Z,100634.38
2023-05-10T13:02:58.369Z,100629.84
2023-05-10T13:06:01.292Z,100626.34
2023-05-10T13:09:04.735Z,100629.06
2023-05-10T13:12:09.913Z,100629.00
2023-05-10T13:15:12.760Z,100617.31
2023-05-10T13:18:15.418Z,100622.50
2023-05-10T13:21:18.103Z,100612.50
2023-05-10T13:24:20.596Z,100612.09
2023-05-10T13:27:23.322Z,100605.78
2023-05-10T13:30:26.217Z,100614.34
2023-05-10T13:33:29.001Z,100602.41
2023-05-10T13:36:32.548Z,100601.31
2023-05-10T13:39:35.670Z,100601.13
2023-05-10T13:42:38.552Z,100604.56
2023-05-10T13:45:41.079Z,100596.03
2023-05-10T13:48:43.752Z,100589.28
2023-05-10T13:51:46.273Z,100591.34
2023-05-10T13:54:49.078Z,100586.59
2023-05-10T13:57:51.617Z,100575.94
2023-05-10T14:00:54.265Z,100581.34
2023-05-10T14:03:57.016Z,100583.13
2023-05-10T14:06:59.726Z,100580.00
2023-05-10T14:10:02.436Z,100583.09
2023-05-10T14:13:04.923Z,100571.22
2023-05-10T14:16:07.745Z,100567.91
2023-05-10T14:19:10.584Z,100559.75
2023-05-10T14:22:13.180Z,100566.31
2023-05-10T14:25:16.088Z,100562.56
2023-05-10T14:28:19.779Z,100563.31
2023-05-10T14:31:22.738Z,100559.69
2023-05-10T14:34:25.351Z,100553.94
2023-05-10T14:37:27.993Z,100555.25
2023-05-10T14:40:31.345Z,100557.75
2023-05-10T14:43:34.173Z,100552.88
2023-05-10T14:46:37.299Z,100555.53
2023-05-10T14:49:40.163Z,100546.59
2023-05-10T14:52:42.684Z,100544.69
2023-05-10T14:55:45.484Z,100547.81
2023-05-10T14:58:48.025Z,100540.50
2023-05-10T15:01:51.031Z,100550.06
2023-05-10T15:04:58.599Z,100539.72
2023-05-10T15:08:01.630Z,100540.84
2023-05-10T15:11:04.556Z,100538.25
2023-05-10T15:14:07.260Z,100530.28
2023-05-10T15:17:10.050Z,100535.75
2023-05-10T15:20:12.810Z,100540.09
2023-05-10T15:23:15.398Z,100530.78
2023-05-10T15:26:18.065Z,100530.84
2023-05-10T15:29:21.238Z,100529.50
2023-05-10T15:32:23.733Z,100522.22
2023-05-10T15:35:27.406Z,100520.84
2023-05-10T15:38:29.854Z,100526.41
2023-05-10T15:41:32.648Z,100526.09
2023-05-10T15:44:36.156Z,100527.91
2023-05-10T15:47:40.717Z,100514.22
2023-05-10T15:50:43.739Z,100519.22
2023-05-10T15:54:00.405Z,100520.00
2023-05-10T15:57:08.730Z,100517.91
2023-05-10T16:00:13.226Z,100526.16
2023-05-10T16:03:16.417Z,100514.28
2023-05-10T16:06:19.133Z,100526.03
2023-05-10T16:09:22.040Z,100518.34
2023-05-10T16:12:24.855Z,100513.81
2023-05-10T16:15:27.653Z,100511.94
2023-05-10T16:18:30.537Z,100512.31
2023-05-10T16:21:33.514Z,100513.81
2023-05-10T16:24:37.112Z,100512.41
2023-05-10T16:27:39.737Z,100513.19
2023-05-10T16:30:42.345Z,100517.28
2023-05-10T16:33:45.115Z,100520.94
2023-05-10T16:36:47.766Z,100518.41
2023-05-10T16:39:50.286Z,100518.56
2023-05-10T16:42:52.923Z,100507.25
2023-05-10T16:45:55.499Z,100512.59
2023-05-10T16:48:59.994Z,100513.47
2023-05-10T16:52:03.304Z,100516.22
2023-05-10T16:55:06.774Z,100522.69
2023-05-10T16:58:09.925Z,100524.13
2023-05-10T17:01:12.900Z,100527.66
2023-05-10T17:04:16.515Z,100527.25
2023-05-10T17:07:19.665Z,100525.47
2023-05-10T17:10:22.041Z,100525.41
2023-05-10T17:13:25.146Z,100531.72
2023-05-10T17:16:28.004Z,100532.00
2023-05-10T17:19:30.836Z,100532.91
2023-05-10T17:22:33.664Z,100526.94
2023-05-10T17:25:36.875Z,100538.16
2023-05-10T17:28:39.339Z,100531.31
2023-05-10T17:31:42.214Z,100534.81
2023-05-10T17:34:44.736Z,100536.63
2023-05-10T17:37:47.407Z,100543.56
2023-05-10T17:40:51.087Z,100534.84
2023-05-10T17:43:54.394Z,100541.09
2023-05-10T17:46:57.028Z,100544.47
2023-05-10T17:49:59.828Z,100546.03
2023-05-10T17:53:02.979Z,100552.72
2023-05-10T17:56:05.968Z,100549.81
2023-05-10T17:59:08.954Z,100556.44
2023-05-10T18:02:11.588Z,100556.22
2023-05-10T18:05:14.397Z,100565.31
2023-05-10T18:08:22.616Z,100569.75
2023-05-10T18:11:25.057Z,100561.94
2023-05-10T18:14:40.095Z,100561.56
2023-05-10T18:17:43.927Z,100567.56
2023-05-10T18:20:46.789Z,100569.09
2023-05-10T18:23:49.697Z,100571.88
2023-05-10T18:26:52.657Z,100576.06
2023-05-10T18:29:55.276Z,100570.75
2023-05-10T18:32:58.612Z,100578.78
2023-05-10T18:36:02.424Z,100582.66
2023-05-10T18:39:05.632Z,100591.66
2023-05-10T18:42:09.151Z,100589.19
2023-05-10T18:45:12.913Z,100593.59
2023-05-10T18:48:15.559Z,100594.06
2023-05-10T18:51:18.533Z,100593.78
2023-05-10T18:54:21.132Z,100592.72
2023-05-10T18:57:24.242Z,100599.53
2023-05-10T19:00:27.277Z,100596.84
2023-05-10T19:03:30.336Z,100594.97
2023-05-10T19:06:33.837Z,100595.91
2023-05-10T19:09:36.897Z,100603.00
2023-05-10T19:12:41.345Z,100605.84
2023-05-10T19:15:44.505Z,100606.78
2023-05-10T19:18:47.410Z,100608.38
2023-05-10T19:21:50.459Z,100609.47
2023-05-10T19:24:53.571Z,100616.84
2023-05-10T19:27:57.971Z,100607.41
2023-05-10T19:31:01.837Z,100611.19
2023-05-10T19:34:04.846Z,100610.84
2023-05-10T19:37:07.719Z,100605.84
2023-05-10T19:40:10.553Z,100602.53
2023-05-10T19:43:13.443Z,100610.25
2023-05-10T19:46:17.933Z,100602.53
2023-05-10T19:49:23.308Z,100606.94
2023-05-10T19:52:26.121Z,100608.50
2023-05-10T19:55:30.020Z,100606.78
2023-05-10T19:58:33.750Z,100609.41
2023-05-10T20:01:36.641Z,100611.22
2023-05-10T20:04:39.679Z,100604.00
2023-05-10T20:07:42.223Z,100603.88
2023-05-10T20:10:45.278Z,100605.13
2023-05-10T20:13:47.665Z,100614.53
2023-05-10T20:16:50.618Z,100607.31
2023-05-10T20:19:53.141Z,100610.53
2023-05-10T20:22:55.789Z,100610.72
2023-05-10T20:25:58.586Z,100608.97
2023-05-10T20:29:01.277Z,100614.91
2023-05-10T20:32:04.052Z,100607.69
2023-05-10T20:35:07.519Z,100617.41
2023-05-10T20:38:10.373Z,100621.94
2023-05-10T20:41:13.075Z,100620.66
2023-05-10T20:44:15.712Z,100619.19
2023-05-10T20:47:18.619Z,100623.72
2023-05-10T20:50:21.173Z,100620.88
2023-05-10T20:53:23.886Z,100615.88
2023-05-10T20:56:26.841Z,100621.06
2023-05-10T20:59:29.660Z,100620.81
2023-05-10T21:02:33.932Z,100618.31
2023-05-10T21:05:36.891Z,100613.81
2023-05-10T21:08:39.532Z,100613.31
2023-05-10T21:11:42.208Z,100609.53
2023-05-10T21:14:46.860Z,100616.78
2023-05-10T21:17:49.840Z,100603.63
2023-05-10T21:20:52.520Z,100603.09
2023-05-10T21:23:55.100Z,100614.00
2023-05-10T21:26:57.840Z,100605.41
2023-05-10T21:30:00.550Z,100610.53
2023-05-10T21:33:03.707Z,100614.56
2023-05-10T21:36:06.683Z,100611.34
2023-05-10T21:39:09.123Z,100611.63
2023-05-10T21:42:11.935Z,100619.63
2023-05-10T21:45:14.344Z,100624.34
2023-05-10T21:48:16.956Z,100625.34
2023-05-10T21:51:19.674Z,100622.19
2023-05-10T21:54:22.338Z,100622.25
2023-05-10T21:57:25.114Z,100626.50
2023-05-10T22:00:27.915Z,100626.22
2023-05-10T22:03:31.036Z,100619.16
2023-05-10T22:06:33.709Z,100613.19
2023-05-10T22:09:36.660Z,100625.13
2023-05-10T22:12:39.336Z,100617.97
2023-05-10T22:15:41.947Z,100621.00
2023-05-10T22:18:44.719Z,100627.63
2023-05-10T22:21:47.462Z,100630.56
2023-05-10T22:24:50.158Z,100631.16
2023-05-10T22:27:52.978Z,100628.91
2023-05-10T22:30:55.720Z,100623.19
2023-05-10T22:33:58.419Z,100627.31
2023-05-10T22:37:02.854Z,100629.88
2023-05-10T22:40:05.973Z,100628.00
2023-05-10T22:43:08.802Z,100625.94
2023-05-10T22:46:11.215Z,100628.28
2023-05-10T22:49:14.332Z,100627.78
2023-05-10T22:52:16.878Z,100631.38
2023-05-10T22:55:19.631Z,100630.19
2023-05-10T22:58:22.066Z,100629.09
2023-05-10T23:01:24.710Z,100633.91
2023-05-10T23:04:27.834Z,100635.75
2023-05-10T23:07:30.456Z,100630.59
2023-05-10T23:10:33.045Z,100635.91
2023-05-10T23:13:36.098Z,100636.81
2023-05-10T23:16:39.173Z,100631.59
2023-05-10T23:19:42.344Z,100631.47
2023-05-10T23:22:45.004Z,100640.81
2023-05-10T23:25:47.730Z,100624.59
2023-05-10T23:28:50.104Z,100634.41
2023-05-10T23:31:53.288Z,100628.16
2023-05-10T23:34:55.733Z,100631.19
2023-05-10T23:37:58.737Z,100631.88
2023-05-10T23:41:01.412Z,100635.50
2023-05-10T23:44:04.376Z,100639.28
2023-05-10T23:47:07.313Z,100632.16
2023-05-10T23:50:10.725Z,100639.56
2023-05-10T23:53:13.145Z,100631.19
2023-05-10T23:56:15.945Z,100639.47
2023-05-10T23:59:18.667Z,100634.75
